Flight Track Log - Related Links

Times and Time Zones

All times are in EDT time to prevent confusion due to time zone crossing. See the CSZ9977 flight status page for this flight to view local times or setup timezone preferences in your user account.

Time Position Orientation Groundspeed Altitude Reporting Facility
EDT Latitude Longitude Course Direction KTS MPH feet Rate Location/Type
12:09AM 30.5065 110.6644 317° Northwest  Level Estimated
12:10AM 30.5781 110.5826 316° Northwest  Level Estimated
12:11AM 30.6497 110.5007 315° West  Level Estimated
12:12AM 30.7212 110.4187 315° West  Level Estimated
12:13AM 30.7927 110.3366 315° West  Level Estimated
12:14AM 30.8641 110.2543 315° West  Level Estimated
12:15AM 30.9354 110.1720 315° West  Level Estimated
12:16AM 31.0067 110.0895 315° West  Level Estimated
12:17AM 31.0780 110.0069 315° West  Level Estimated
12:18AM 31.1492 109.9241 315° West  Level Estimated
12:19AM 31.2203 109.8412 315° West  Level Estimated
12:20AM 31.2914 109.7583 315° West  Level Estimated
12:21AM 31.3624 109.6751 315° West  Level Estimated
12:22AM 31.4334 109.5919 315° West  Level Estimated
12:23AM 31.5044 109.5085 315° West  Level Estimated
12:24AM 31.5752 109.4250 315° West  Level Estimated
12:25AM 31.6460 109.3414 315° West  Level Estimated
12:26AM 31.7168 109.2577 315° West  Level Estimated
12:27AM 31.7875 109.1738 315° West  Level Estimated
12:28AM 31.8582 109.0898 315° West  Level Estimated
12:29AM 31.9288 109.0056 315° West  Level Estimated
12:30AM 31.9993 108.9214 315° West  Level Estimated
12:31AM 32.0698 108.8370 315° West  Level Estimated
12:32AM 32.1403 108.7525 315° West  Level Estimated
12:33AM 32.2106 108.6678 315° West  Level Estimated
12:34AM 32.2810 108.5830 314° West  Level Estimated
12:35AM 32.3512 108.4981 314° West  Level Estimated
12:36AM 32.4214 108.4130 314° West  Level Estimated
12:37AM 32.4916 108.3279 314° West  Level Estimated
12:38AM 32.5617 108.2426 314° West  Level Estimated
12:39AM 32.6317 108.1571 314° West  Level Estimated
12:40AM 32.7017 108.0715 314° West  Level Estimated
12:41AM 32.7716 107.9858 314° West  Level Estimated
12:42AM 32.8415 107.8999 314° West  Level Estimated
12:43AM 32.9113 107.8140 314° West  Level Estimated
12:44AM 32.9810 107.7278 314° West  Level Estimated
12:45AM 33.0507 107.6416 314° West  Level Estimated
12:46AM 33.1203 107.5552 314° West  Level Estimated
12:47AM 33.1899 107.4687 314° West  Level Estimated
12:48AM 33.2594 107.3820 314° West  Level Estimated
12:49AM 33.3288 107.2952 314° West  Level Estimated
12:50AM 33.3982 107.2082 314° West  Level Estimated
12:51AM 33.4675 107.1211 314° West  Level Estimated
12:52AM 33.5368 107.0339 314° West  Level Estimated
12:53AM 33.6060 106.9466 314° West  Level Estimated
12:54AM 33.6752 106.8591 314° West  Level Estimated
12:55AM 33.7442 106.7714 313° West  Level Estimated
12:56AM 33.8133 106.6836 313° West  Level Estimated
12:57AM 33.8822 106.5957 313° West  Level Estimated
12:58AM 33.9511 106.5076 313° West  Level Estimated
12:59AM 34.0199 106.4194 313° West  Level Estimated
01:00AM 34.0887 106.3311 313° West  Level Estimated
01:01AM 34.1574 106.2426 313° West  Level Estimated
01:02AM 34.2260 106.1539 313° West  Level Estimated
01:03AM 34.2946 106.0651 313° West  Level Estimated
01:04AM 34.3631 105.9762 313° West  Level Estimated
01:05AM 34.4316 105.8871 313° West  Level Estimated
01:06AM 34.4999 105.7979 313° West  Level Estimated
01:07AM 34.5683 105.7085 313° West  Level Estimated
01:08AM 34.6365 105.6190 313° West  Level Estimated
01:09AM 34.7047 105.5293 313° West  Level Estimated
01:10AM 34.7728 105.4395 313° West  Level Estimated
01:11AM 34.8409 105.3496 313° West  Level Estimated
01:12AM 34.9089 105.2595 313° West  Level Estimated
01:13AM 34.9768 105.1692 313° West  Level Estimated
01:14AM 35.0446 105.0788 313° West  Level Estimated
01:15AM 35.1124 104.9882 312° West  Level Estimated
01:16AM 35.1801 104.8975 312° West  Level Estimated
01:17AM 35.2478 104.8067 312° West  Level Estimated
01:18AM 35.3154 104.7156 312° West  Level Estimated
01:19AM 35.3829 104.6245 312° West  Level Estimated
01:20AM 35.4503 104.5332 312° West  Level Estimated
01:21AM 35.5177 104.4417 312° West  Level Estimated
01:22AM 35.5850 104.3501 312° West  Level Estimated
01:23AM 35.6523 104.2583 312° West  Level Estimated
01:24AM 35.7194 104.1664 312° West  Level Estimated
01:25AM 35.7865 104.0743 312° West  Level Estimated
01:26AM 35.8535 103.9820 312° West  Level Estimated
01:27AM 35.9205 103.8896 312° West  Level Estimated
01:28AM 35.9874 103.7971 312° West  Level Estimated
01:29AM 36.0542 103.7044 312° West  Level Estimated
01:30AM 36.1170 103.6170 312° West  Level Estimated
01:31AM 36.1170 103.6170 North  Level Estimated
01:32AM 36.1170 103.6170 North  Level Estimated
01:33AM 36.1170 103.6170 North  Level Estimated
01:34AM 36.1170 103.6170 North  Level Estimated
01:35AM 36.1170 103.6170 North  Level Estimated
01:36AM 36.1170 103.6170 North  Level Estimated
01:37AM 36.1170 103.6170 North  Level Estimated
01:38AM 36.1170 103.6170 North  Level Estimated
01:39AM 36.1170 103.6170 North  Level Estimated
01:40AM 36.1170 103.6170 North  Level Estimated
01:41AM 36.1170 103.6170 North  Level Estimated
01:42AM 36.1170 103.6170 North  Level Estimated
01:43AM 36.1170 103.6170 North  Level Estimated
01:44AM 36.1170 103.6170 North  Level Estimated
01:45AM 36.1170 103.6170 North  Level Estimated
01:46AM 36.1170 103.6170 North  Level Estimated

Login

Don't have an account? Register now (free) for customized features, flight alerts, and more!